Time;durP1;ratioP1;P1;durP2;ratioP2;P2;SDS_P1;SDS_P2;PMS_P1;PMS_P2;Temp;Humidity;BMP_temperature;BMP_pressure;BME280_temperature;BME280_humidity;BME280_pressure;Samples;Min_cycle;Max_cycle;Signal;HPM_P1;HPM_P2
2021/04/30 00:00:09;;;;;;;17.33;13.52;;;12.40;82.20;;;;;;5094896;28;20538;-72
2021/04/30 00:02:36;;;;;;;18.50;13.35;;;12.40;81.90;;;;;;5096598;28;20020;-72
2021/04/30 00:05:03;;;;;;;13.82;10.90;;;12.30;81.70;;;;;;5095633;28;20028;-71
2021/04/30 00:07:29;;;;;;;14.57;11.77;;;12.30;81.20;;;;;;5097683;28;20055;-72
2021/04/30 00:09:54;;;;;;;17.02;12.60;;;12.30;80.70;;;;;;5096793;28;20115;-72
2021/04/30 00:12:19;;;;;;;15.73;12.32;;;12.20;80.70;;;;;;5094255;28;20039;-72
2021/04/30 00:14:45;;;;;;;18.05;12.45;;;12.20;80.80;;;;;;5095279;28;20038;-72
2021/04/30 00:17:11;;;;;;;16.58;12.63;;;12.20;80.70;;;;;;5098820;28;20035;-73
2021/04/30 00:19:36;;;;;;;16.25;11.23;;;12.10;80.40;;;;;;5100431;28;20050;-72
2021/04/30 00:22:02;;;;;;;14.50;11.77;;;12.10;80.40;;;;;;5093779;28;20054;-72
2021/04/30 00:24:28;;;;;;;14.25;10.57;;;12.10;80.40;;;;;;5100029;28;20448;-72
2021/04/30 00:26:53;;;;;;;14.88;12.18;;;12.00;80.30;;;;;;5112764;28;20024;-72
2021/04/30 00:29:19;;;;;;;14.00;11.07;;;12.00;80.40;;;;;;5096823;28;20115;-73
2021/04/30 00:31:44;;;;;;;16.25;11.05;;;12.00;80.40;;;;;;5095507;28;20017;-72
2021/04/30 00:34:10;;;;;;;15.95;11.60;;;12.00;80.50;;;;;;5086138;28;20063;-74
2021/04/30 00:36:35;;;;;;;14.52;10.73;;;11.90;80.40;;;;;;5075252;28;20016;-72
2021/04/30 00:39:02;;;;;;;13.00;10.68;;;11.90;80.40;;;;;;5096670;28;20023;-72
2021/04/30 00:41:28;;;;;;;12.93;10.23;;;11.90;80.30;;;;;;5115442;28;20384;-73
2021/04/30 00:43:53;;;;;;;12.77;10.13;;;11.90;80.40;;;;;;5094375;28;20028;-73
2021/04/30 00:46:19;;;;;;;10.88;8.85;;;11.90;80.30;;;;;;5095185;28;20700;-73
2021/04/30 00:48:44;;;;;;;13.00;9.20;;;11.90;80.20;;;;;;5094801;28;20053;-71
2021/04/30 00:51:10;;;;;;;14.27;10.52;;;11.90;80.00;;;;;;5108701;28;20031;-72
2021/04/30 00:53:35;;;;;;;14.38;10.55;;;11.90;80.00;;;;;;5092087;28;20016;-71
2021/04/30 00:56:01;;;;;;;11.55;9.23;;;11.80;80.10;;;;;;5094959;28;20384;-70
2021/04/30 00:58:27;;;;;;;12.63;10.05;;;11.80;80.30;;;;;;5085058;28;20639;-71
2021/04/30 01:00:52;;;;;;;13.52;9.85;;;11.80;80.30;;;;;;5094313;28;20500;-70
2021/04/30 01:03:18;;;;;;;12.32;10.07;;;11.80;80.60;;;;;;5091305;28;20085;-69
2021/04/30 01:05:43;;;;;;;13.68;9.93;;;11.80;80.50;;;;;;5094584;28;20720;-71
2021/04/30 01:08:09;;;;;;;14.27;10.18;;;11.80;80.60;;;;;;5090930;28;20418;-70
2021/04/30 01:10:35;;;;;;;13.10;10.00;;;11.80;80.70;;;;;;5102217;28;20077;-70
2021/04/30 01:13:01;;;;;;;15.38;10.20;;;11.80;80.80;;;;;;5094001;28;20406;-70
2021/04/30 01:15:27;;;;;;;11.75;9.77;;;11.80;80.80;;;;;;5092513;28;20048;-70
2021/04/30 01:17:52;;;;;;;12.25;9.70;;;11.80;80.80;;;;;;5102800;28;20039;-70
2021/04/30 01:20:20;;;;;;;12.85;10.02;;;11.80;80.90;;;;;;5093109;28;20060;-70
2021/04/30 01:22:51;;;;;;;13.10;9.82;;;11.80;80.80;;;;;;5093503;28;20042;-71
2021/04/30 01:25:25;;;;;;;12.75;9.40;;;11.80;80.90;;;;;;5093221;28;20377;-70
2021/04/30 01:27:51;;;;;;;15.82;10.70;;;11.90;81.40;;;;;;5075309;28;20028;-70
2021/04/30 01:30:21;;;;;;;13.52;10.90;;;11.80;81.20;;;;;;5108446;28;20097;-70
2021/04/30 01:32:47;;;;;;;13.25;10.80;;;11.80;81.20;;;;;;5101383;28;20109;-72
2021/04/30 01:35:19;;;;;;;15.07;11.05;;;11.90;81.20;;;;;;5093215;28;20488;-74
2021/04/30 01:37:46;;;;;;;15.55;11.43;;;11.90;81.30;;;;;;5093195;28;20103;-71
2021/04/30 01:40:13;;;;;;;14.48;11.43;;;11.90;81.20;;;;;;5089619;28;20036;-70
2021/04/30 01:42:55;;;;;;;15.25;11.05;;;11.90;81.20;;;;;;5081783;28;20020;-70
2021/04/30 01:45:20;;;;;;;11.90;10.25;;;11.80;81.20;;;;;;5109541;28;20024;-70
2021/04/30 01:47:46;;;;;;;15.70;12.15;;;11.90;81.20;;;;;;5098875;28;20034;-70
2021/04/30 01:50:12;;;;;;;11.88;9.40;;;11.80;81.30;;;;;;5108488;28;20044;-69
2021/04/30 01:52:38;;;;;;;12.00;10.05;;;11.80;81.30;;;;;;5101186;28;20020;-70
2021/04/30 01:55:04;;;;;;;14.15;11.02;;;11.80;81.40;;;;;;5105008;28;20038;-70
2021/04/30 01:57:29;;;;;;;11.95;9.77;;;11.70;81.50;;;;;;5077442;28;20039;-70
2021/04/30 01:59:55;;;;;;;12.00;10.00;;;11.70;81.60;;;;;;5087323;28;20047;-70
2021/04/30 02:02:20;;;;;;;12.52;9.48;;;11.70;81.60;;;;;;5097214;28;20050;-70
2021/04/30 02:04:46;;;;;;;12.43;9.02;;;11.70;82.10;;;;;;5104041;28;20171;-70
2021/04/30 02:07:11;;;;;;;13.40;8.98;;;11.70;82.00;;;;;;5105192;28;20020;-69
2021/04/30 02:09:38;;;;;;;13.13;9.15;;;11.70;82.50;;;;;;5094525;28;20032;-70
2021/04/30 02:12:04;;;;;;;12.57;8.80;;;11.70;81.90;;;;;;5092729;28;20032;-70
2021/04/30 02:14:30;;;;;;;11.05;8.88;;;11.60;81.80;;;;;;5083433;28;20118;-70
2021/04/30 02:16:55;;;;;;;13.35;9.07;;;11.60;81.90;;;;;;5107434;28;20028;-70
2021/04/30 02:19:21;;;;;;;10.98;9.07;;;11.60;82.10;;;;;;5091887;28;20035;-70
2021/04/30 02:21:46;;;;;;;11.35;8.88;;;11.60;82.20;;;;;;5089831;28;20475;-70
2021/04/30 02:24:12;;;;;;;12.65;8.57;;;11.60;82.00;;;;;;5087410;28;20415;-70
2021/04/30 02:26:37;;;;;;;13.13;9.85;;;11.60;82.10;;;;;;5098851;28;20032;-72
2021/04/30 02:29:03;;;;;;;10.93;8.85;;;11.60;82.10;;;;;;5077851;28;20051;-71
2021/04/30 02:31:29;;;;;;;12.02;8.63;;;11.60;82.00;;;;;;5087260;28;20028;-69
2021/04/30 02:33:54;;;;;;;12.98;9.40;;;11.60;82.20;;;;;;5084544;28;20101;-69
2021/04/30 02:36:20;;;;;;;12.00;8.90;;;11.60;82.50;;;;;;5091516;28;20154;-69
2021/04/30 02:38:45;;;;;;;11.05;9.18;;;11.60;82.60;;;;;;5094918;28;20483;-69
2021/04/30 02:41:11;;;;;;;11.15;8.48;;;11.60;82.80;;;;;;5109739;28;20024;-69
2021/04/30 02:43:36;;;;;;;13.07;9.23;;;11.50;82.80;;;;;;5091538;28;20421;-69
2021/04/30 02:46:02;;;;;;;14.32;9.18;;;11.50;82.90;;;;;;5092455;28;20032;-69
2021/04/30 02:48:37;;;;;;;11.40;9.10;;;11.50;83.20;;;;;;5090722;28;20044;-69
2021/04/30 02:51:08;;;;;;;10.38;9.15;;;11.50;83.50;;;;;;5074748;28;20089;-69
2021/04/30 02:53:34;;;;;;;13.80;9.32;;;11.50;83.80;;;;;;5093030;28;20074;-69
2021/04/30 02:55:59;;;;;;;13.40;9.90;;;11.50;84.10;;;;;;5108710;28;20027;-69
2021/04/30 02:58:25;;;;;;;11.60;8.90;;;11.50;84.20;;;;;;5091398;28;20024;-69
2021/04/30 03:00:51;;;;;;;12.48;9.15;;;11.50;84.20;;;;;;5091153;28;20109;-69
2021/04/30 03:03:16;;;;;;;13.30;9.07;;;11.50;84.30;;;;;;5103263;28;20023;-69
2021/04/30 03:05:43;;;;;;;13.10;9.45;;;11.50;84.80;;;;;;5091600;28;20450;-69
2021/04/30 03:08:09;;;;;;;14.05;9.55;;;11.50;84.80;;;;;;5072033;28;20036;-69
2021/04/30 03:10:35;;;;;;;14.65;9.45;;;11.40;85.00;;;;;;5090603;28;20632;-69
2021/04/30 03:13:01;;;;;;;13.50;9.10;;;11.40;85.10;;;;;;5092370;28;20032;-69
2021/04/30 03:15:27;;;;;;;10.65;8.65;;;11.40;85.20;;;;;;5090067;28;20039;-69
2021/04/30 03:17:52;;;;;;;11.18;8.55;;;11.40;85.80;;;;;;5110657;28;20042;-69
2021/04/30 03:20:18;;;;;;;12.65;9.13;;;11.40;85.70;;;;;;5090604;28;20027;-69
2021/04/30 03:22:44;;;;;;;13.88;10.32;;;11.40;86.50;;;;;;5073534;28;20024;-69
2021/04/30 03:25:11;;;;;;;12.18;8.82;;;11.30;86.60;;;;;;5101871;28;20464;-69
2021/04/30 03:27:37;;;;;;;11.02;8.30;;;11.30;87.60;;;;;;5073103;28;20111;-69
2021/04/30 03:30:04;;;;;;;11.07;8.68;;;11.30;87.80;;;;;;5090855;28;20032;-69
2021/04/30 03:32:30;;;;;;;11.57;8.45;;;11.30;87.90;;;;;;5076093;28;20107;-69
2021/04/30 03:34:55;;;;;;;13.55;9.18;;;11.30;88.80;;;;;;5103749;28;20111;-69
2021/04/30 03:37:22;;;;;;;11.27;8.98;;;11.20;89.30;;;;;;5097864;28;20488;-69
2021/04/30 03:39:48;;;;;;;12.25;8.75;;;11.20;89.60;;;;;;5089984;28;20032;-69
2021/04/30 03:42:13;;;;;;;12.52;9.18;;;11.20;90.10;;;;;;5091664;28;20024;-69
2021/04/30 03:44:39;;;;;;;13.77;10.15;;;11.20;90.50;;;;;;5090409;28;20038;-69
2021/04/30 03:47:04;;;;;;;12.73;10.10;;;11.10;90.50;;;;;;5072790;28;20508;-69
2021/04/30 03:49:30;;;;;;;13.35;9.57;;;11.10;90.70;;;;;;5090472;28;20042;-69
2021/04/30 03:51:56;;;;;;;13.23;9.75;;;11.10;91.00;;;;;;5090360;28;20020;-69
2021/04/30 03:54:21;;;;;;;11.40;9.55;;;11.00;91.10;;;;;;5098803;28;20480;-69
2021/04/30 03:56:47;;;;;;;13.20;9.23;;;11.00;91.10;;;;;;5093377;28;20469;-69
2021/04/30 03:59:12;;;;;;;12.60;9.82;;;11.00;91.20;;;;;;5091607;28;20498;-69
2021/04/30 04:01:38;;;;;;;13.60;10.32;;;11.00;91.30;;;;;;5104225;28;20118;-69
2021/04/30 04:04:04;;;;;;;13.38;9.20;;;11.10;91.30;;;;;;5094613;28;20537;-69
2021/04/30 04:06:29;;;;;;;14.07;10.55;;;11.00;91.30;;;;;;5095230;28;20426;-69
2021/04/30 04:08:54;;;;;;;12.10;9.38;;;11.00;91.30;;;;;;5097077;28;20055;-69
2021/04/30 04:11:21;;;;;;;14.10;9.23;;;11.10;91.30;;;;;;5105896;28;20387;-71
2021/04/30 04:13:46;;;;;;;10.73;8.25;;;11.00;91.30;;;;;;5097459;28;20024;-69
2021/04/30 04:16:12;;;;;;;12.80;8.98;;;11.00;91.30;;;;;;5106678;28;20441;-71
2021/04/30 04:18:37;;;;;;;13.57;9.32;;;11.00;91.30;;;;;;5096568;28;20082;-70
2021/04/30 04:21:03;;;;;;;11.45;9.55;;;11.00;91.30;;;;;;5105769;28;20369;-70
2021/04/30 04:23:28;;;;;;;11.85;9.80;;;11.10;91.30;;;;;;5093680;28;20070;-71
2021/04/30 04:25:54;;;;;;;11.35;9.23;;;11.00;91.40;;;;;;5091045;28;20036;-71
2021/04/30 04:28:19;;;;;;;11.82;9.30;;;11.00;91.50;;;;;;5091276;28;20082;-69
2021/04/30 04:30:45;;;;;;;13.98;10.48;;;11.00;91.60;;;;;;5108442;28;20028;-69
2021/04/30 04:33:11;;;;;;;13.38;9.82;;;11.00;91.60;;;;;;5094596;28;20509;-70
2021/04/30 04:35:37;;;;;;;13.52;9.40;;;10.90;91.70;;;;;;5108906;28;20024;-70
2021/04/30 04:38:02;;;;;;;13.98;9.90;;;11.00;91.70;;;;;;5094980;28;20089;-70
2021/04/30 04:40:28;;;;;;;13.18;9.93;;;10.90;91.90;;;;;;5103750;28;20032;-72
2021/04/30 04:42:53;;;;;;;12.60;9.10;;;10.90;91.80;;;;;;5092410;28;20024;-72
2021/04/30 04:45:20;;;;;;;12.55;9.50;;;11.00;91.90;;;;;;5093357;28;20046;-71
2021/04/30 04:47:45;;;;;;;14.57;10.07;;;11.00;91.90;;;;;;5098868;28;20036;-71
2021/04/30 04:50:13;;;;;;;13.02;10.02;;;11.00;91.80;;;;;;5090489;28;20032;-71
2021/04/30 04:52:39;;;;;;;12.38;9.57;;;11.00;91.80;;;;;;5098226;28;20020;-70
2021/04/30 04:55:06;;;;;;;12.30;9.82;;;11.00;91.80;;;;;;5096900;28;20036;-70
2021/04/30 04:57:32;;;;;;;15.38;10.30;;;11.10;91.90;;;;;;5094295;28;20040;-71
2021/04/30 04:59:58;;;;;;;12.20;9.80;;;11.10;91.80;;;;;;5098849;28;20396;-70
2021/04/30 05:02:23;;;;;;;14.75;9.75;;;11.10;91.60;;;;;;5075658;28;20074;-70
2021/04/30 05:04:49;;;;;;;13.23;9.85;;;11.10;91.60;;;;;;5098868;28;20028;-70
2021/04/30 05:07:14;;;;;;;13.10;9.95;;;11.10;91.60;;;;;;5080097;28;20029;-70
2021/04/30 05:09:40;;;;;;;11.75;9.77;;;11.10;91.60;;;;;;5097234;28;20460;-70
2021/04/30 05:12:07;;;;;;;12.40;9.70;;;11.00;91.70;;;;;;5101388;28;20034;-70
2021/04/30 05:14:32;;;;;;;12.23;9.15;;;11.00;91.80;;;;;;5092622;28;20038;-70
2021/04/30 05:16:58;;;;;;;13.75;10.02;;;11.00;91.80;;;;;;5093806;28;20036;-70
2021/04/30 05:19:23;;;;;;;13.90;10.27;;;11.00;91.70;;;;;;5093304;28;20036;-70
2021/04/30 05:21:49;;;;;;;14.18;10.70;;;11.00;91.70;;;;;;5092587;28;20020;-70
2021/04/30 05:24:15;;;;;;;11.30;9.38;;;11.00;91.80;;;;;;5093119;28;20386;-70
2021/04/30 05:26:41;;;;;;;13.18;10.05;;;11.10;91.70;;;;;;5093705;28;20028;-69
2021/04/30 05:29:07;;;;;;;14.15;9.48;;;11.10;91.70;;;;;;5099391;28;20441;-70
2021/04/30 05:31:34;;;;;;;12.60;9.85;;;11.10;91.70;;;;;;5098332;28;20095;-70
2021/04/30 05:34:00;;;;;;;13.75;10.77;;;11.10;91.70;;;;;;5086027;28;20485;-70
2021/04/30 05:36:25;;;;;;;12.65;9.40;;;11.10;91.70;;;;;;5083055;28;20039;-70
2021/04/30 05:38:51;;;;;;;12.57;10.20;;;11.10;91.70;;;;;;5097870;28;20026;-70
2021/04/30 05:41:17;;;;;;;11.90;9.70;;;11.10;91.70;;;;;;5107600;28;20032;-70
2021/04/30 05:43:42;;;;;;;12.93;9.35;;;11.10;91.90;;;;;;5092617;28;20077;-70
2021/04/30 05:46:08;;;;;;;13.57;9.68;;;11.00;91.70;;;;;;5067414;28;20025;-71
2021/04/30 05:48:33;;;;;;;11.50;9.55;;;11.00;91.80;;;;;;5078593;28;20082;-72
2021/04/30 05:50:59;;;;;;;13.65;10.15;;;11.00;91.90;;;;;;5073825;28;20404;-70
2021/04/30 05:53:25;;;;;;;13.00;9.75;;;11.00;91.80;;;;;;5093221;28;20020;-70
2021/04/30 05:55:50;;;;;;;12.93;9.13;;;11.00;91.80;;;;;;5108723;28;20039;-70
2021/04/30 05:58:16;;;;;;;10.82;8.57;;;11.10;91.90;;;;;;5082420;28;20032;-70
2021/04/30 06:00:41;;;;;;;12.07;8.85;;;11.10;91.70;;;;;;5086584;28;20040;-70
2021/04/30 06:03:07;;;;;;;13.10;8.60;;;11.10;91.70;;;;;;5073639;28;20021;-70
2021/04/30 06:05:32;;;;;;;13.10;9.50;;;11.10;91.60;;;;;;5092774;28;20396;-70
2021/04/30 06:07:58;;;;;;;12.95;9.48;;;11.10;91.50;;;;;;5075182;28;20111;-70
2021/04/30 06:10:24;;;;;;;14.57;8.80;;;11.10;91.60;;;;;;5085984;28;20032;-69
2021/04/30 06:12:49;;;;;;;14.27;9.70;;;11.10;91.50;;;;;;5110850;28;20032;-70
2021/04/30 06:15:15;;;;;;;10.52;7.43;;;11.10;91.70;;;;;;5071861;28;20380;-70
2021/04/30 06:17:41;;;;;;;9.75;8.15;;;11.10;91.60;;;;;;5089851;28;20017;-70
2021/04/30 06:20:07;;;;;;;10.13;8.32;;;11.10;91.50;;;;;;5091423;28;20089;-70
2021/04/30 06:22:32;;;;;;;9.75;7.95;;;11.10;91.50;;;;;;5093008;28;20024;-70
2021/04/30 06:24:58;;;;;;;13.20;9.13;;;11.20;91.40;;;;;;5101821;28;20148;-70
2021/04/30 06:27:24;;;;;;;10.90;8.57;;;11.10;91.40;;;;;;5093117;28;20024;-70
2021/04/30 06:29:49;;;;;;;12.00;8.63;;;11.20;91.60;;;;;;5091228;28;20040;-70
2021/04/30 06:32:15;;;;;;;11.07;8.23;;;11.10;91.50;;;;;;5072766;28;20090;-70
2021/04/30 06:34:40;;;;;;;11.30;7.57;;;11.00;91.40;;;;;;5083907;28;20038;-70
2021/04/30 06:37:06;;;;;;;8.77;6.95;;;11.00;91.30;;;;;;5091351;28;20027;-70
2021/04/30 06:39:31;;;;;;;9.70;7.38;;;11.00;91.30;;;;;;5092016;28;20426;-70
2021/04/30 06:42:01;;;;;;;10.13;6.80;;;11.00;91.10;;;;;;5092597;28;20107;-69
2021/04/30 06:44:27;;;;;;;8.30;6.10;;;11.00;91.00;;;;;;5101099;28;20030;-69
2021/04/30 06:46:53;;;;;;;9.90;7.15;;;11.00;90.80;;;;;;5091709;28;20028;-68
2021/04/30 06:49:18;;;;;;;9.07;6.85;;;11.10;90.80;;;;;;5090130;28;20499;-68
2021/04/30 06:51:44;;;;;;;8.27;6.60;;;11.10;90.80;;;;;;5092610;28;20016;-68
2021/04/30 06:54:09;;;;;;;7.00;4.80;;;11.20;90.70;;;;;;5092094;28;20024;-68
2021/04/30 06:56:35;;;;;;;7.93;5.57;;;11.20;90.50;;;;;;5098855;28;20015;-67
2021/04/30 06:59:00;;;;;;;7.13;5.05;;;11.20;90.20;;;;;;5106673;28;20386;-68
2021/04/30 07:01:26;;;;;;;8.10;6.13;;;11.20;90.10;;;;;;5092183;28;20539;-68
2021/04/30 07:03:51;;;;;;;10.55;5.57;;;11.20;90.00;;;;;;5095230;28;20074;-68
2021/04/30 07:06:19;;;;;;;5.65;4.32;;;11.20;90.00;;;;;;5090370;28;20040;-69
2021/04/30 07:08:45;;;;;;;7.90;5.28;;;11.20;89.60;;;;;;5091020;28;20032;-68
2021/04/30 07:11:10;;;;;;;7.25;4.78;;;11.30;89.60;;;;;;5092072;28;20024;-68
2021/04/30 07:13:36;;;;;;;7.40;4.85;;;11.30;89.30;;;;;;5091938;28;20112;-68
2021/04/30 07:16:03;;;;;;;5.03;3.85;;;11.30;89.30;;;;;;5103361;28;20524;-68
2021/04/30 07:18:28;;;;;;;5.20;3.80;;;11.30;88.90;;;;;;5091567;28;20027;-68
2021/04/30 07:20:54;;;;;;;6.40;4.03;;;11.30;88.60;;;;;;5111648;28;20035;-68
2021/04/30 07:23:19;;;;;;;6.18;3.65;;;11.40;88.80;;;;;;5070376;28;20388;-69
2021/04/30 07:25:45;;;;;;;6.38;3.60;;;11.40;88.10;;;;;;5072530;28;20020;-69
2021/04/30 07:28:10;;;;;;;4.82;3.65;;;11.40;87.60;;;;;;5090303;28;20020;-69
2021/04/30 07:30:36;;;;;;;7.60;3.70;;;11.40;86.80;;;;;;5075321;28;20036;-69
2021/04/30 07:33:01;;;;;;;4.45;3.20;;;11.40;86.80;;;;;;5090048;28;20031;-68
2021/04/30 07:35:27;;;;;;;5.47;3.42;;;11.40;86.50;;;;;;5090082;28;20425;-69
2021/04/30 07:37:52;;;;;;;4.53;3.33;;;11.40;85.80;;;;;;5090363;28;20027;-69
2021/04/30 07:40:18;;;;;;;6.60;3.50;;;11.40;86.10;;;;;;5090425;28;20432;-69
2021/04/30 07:42:43;;;;;;;6.90;3.72;;;11.40;85.70;;;;;;5096527;28;20020;-68
2021/04/30 07:45:10;;;;;;;7.32;4.03;;;11.50;85.70;;;;;;5068981;28;20162;-68
2021/04/30 07:47:35;;;;;;;9.10;4.47;;;11.60;85.70;;;;;;5080303;28;20478;-67
2021/04/30 07:50:01;;;;;;;6.30;3.90;;;11.60;84.80;;;;;;5095682;28;20032;-67
2021/04/30 07:52:26;;;;;;;5.90;4.25;;;11.60;84.40;;;;;;5088496;28;20028;-67
2021/04/30 07:54:52;;;;;;;6.30;3.95;;;11.60;84.20;;;;;;5081014;28;20487;-68
2021/04/30 07:57:18;;;;;;;5.47;3.80;;;11.60;84.30;;;;;;5090310;28;20368;-68
2021/04/30 07:59:43;;;;;;;5.32;3.70;;;11.60;84.80;;;;;;5089360;28;20044;-67
2021/04/30 08:02:09;;;;;;;6.28;3.85;;;11.70;84.90;;;;;;5088610;28;20024;-66
2021/04/30 08:04:35;;;;;;;5.95;3.75;;;11.80;84.50;;;;;;5086694;28;20131;-67
2021/04/30 08:07:00;;;;;;;7.55;4.50;;;11.80;83.90;;;;;;5090303;28;20112;-67
2021/04/30 08:09:26;;;;;;;5.75;4.03;;;11.80;83.90;;;;;;5090766;28;20083;-67
2021/04/30 08:11:52;;;;;;;6.57;4.18;;;11.80;83.70;;;;;;5088632;28;20463;-67
2021/04/30 08:14:17;;;;;;;5.88;3.88;;;11.70;83.60;;;;;;5089900;28;20032;-67
2021/04/30 08:16:42;;;;;;;5.97;3.80;;;11.70;83.30;;;;;;5071063;28;20107;-67
2021/04/30 08:19:08;;;;;;;7.00;3.72;;;11.70;83.90;;;;;;5089113;28;20025;-67
2021/04/30 08:21:35;;;;;;;6.15;4.03;;;11.80;83.80;;;;;;5089145;28;20066;-66
2021/04/30 08:24:02;;;;;;;6.60;4.03;;;11.80;83.40;;;;;;5094631;28;20441;-66
2021/04/30 08:26:28;;;;;;;7.32;4.25;;;11.80;83.20;;;;;;5090609;28;20038;-67
2021/04/30 08:28:54;;;;;;;8.80;4.50;;;11.70;83.10;;;;;;5076069;28;20127;-68
2021/04/30 08:31:22;;;;;;;9.02;4.75;;;11.70;83.30;;;;;;5099573;28;20082;-67
2021/04/30 08:33:48;;;;;;;6.32;4.53;;;11.70;83.60;;;;;;5075620;28;20112;-68
2021/04/30 08:36:13;;;;;;;6.72;4.18;;;11.70;83.80;;;;;;5090064;28;20060;-67
2021/04/30 08:38:39;;;;;;;5.28;4.05;;;11.60;83.50;;;;;;5088903;28;20492;-67
2021/04/30 08:41:04;;;;;;;6.00;4.57;;;11.60;83.20;;;;;;5089855;28;20055;-67
2021/04/30 08:43:30;;;;;;;5.90;4.13;;;11.60;83.00;;;;;;5091551;28;20028;-67
2021/04/30 08:45:55;;;;;;;7.40;4.05;;;11.60;82.90;;;;;;5093516;28;20080;-67
2021/04/30 08:48:24;;;;;;;5.72;4.35;;;11.50;83.00;;;;;;5090535;28;20059;-67
2021/04/30 08:50:52;;;;;;;6.35;4.13;;;11.50;83.20;;;;;;5099492;28;20032;-67
2021/04/30 08:53:17;;;;;;;5.32;3.70;;;11.40;83.10;;;;;;5093285;28;20066;-67
2021/04/30 08:55:44;;;;;;;6.72;3.78;;;11.50;83.30;;;;;;5094113;28;20060;-67
2021/04/30 08:58:10;;;;;;;6.60;4.15;;;11.50;83.20;;;;;;5094518;28;20024;-67
2021/04/30 09:00:36;;;;;;;6.53;3.72;;;11.50;83.10;;;;;;5093693;28;20044;-67
2021/04/30 09:03:04;;;;;;;7.97;3.00;;;11.60;82.50;;;;;;5094503;28;20144;-67
2021/04/30 09:05:31;;;;;;;7.20;3.55;;;11.60;81.80;;;;;;5093446;28;20598;-67
2021/04/30 09:07:58;;;;;;;5.72;3.30;;;11.40;81.00;;;;;;5094058;28;20158;-67
2021/04/30 09:10:26;;;;;;;7.00;4.03;;;11.40;81.80;;;;;;5089822;28;20032;-67
2021/04/30 09:13:04;;;;;;;6.82;3.88;;;11.40;81.70;;;;;;5075476;28;20027;-67
2021/04/30 09:15:30;;;;;;;4.85;3.15;;;11.50;81.60;;;;;;5094460;28;20032;-67
2021/04/30 09:18:17;;;;;;;5.68;3.75;;;11.50;81.60;;;;;;5089248;28;20529;-68
2021/04/30 09:20:44;;;;;;;6.05;3.55;;;11.60;81.40;;;;;;5083383;28;20036;-68
2021/04/30 09:23:29;;;;;;;7.05;4.10;;;11.50;80.70;;;;;;5087388;28;20020;-69
2021/04/30 09:25:55;;;;;;;;;;;11.50;81.10;;;;;;5094213;28;20055;-68
2021/04/30 09:28:21;;;;;;;7.28;4.20;;;11.60;81.30;;;;;;5076035;28;20307;-69
2021/04/30 09:30:46;;;;;;;7.95;4.15;;;11.60;81.10;;;;;;5071819;28;20037;-68
2021/04/30 09:33:15;;;;;;;7.13;3.85;;;11.70;80.80;;;;;;5073871;28;20031;-68
2021/04/30 09:35:42;;;;;;;6.50;3.72;;;11.80;81.10;;;;;;5084269;28;20032;-68
2021/04/30 09:38:28;;;;;;;5.57;3.90;;;12.00;81.00;;;;;;5093448;28;20388;-68
2021/04/30 09:41:00;;;;;;;5.95;3.75;;;12.20;80.40;;;;;;5090023;28;20158;-68
2021/04/30 09:43:26;;;;;;;5.90;4.25;;;12.40;79.90;;;;;;5093913;28;20027;-69
2021/04/30 09:45:51;;;;;;;6.05;4.00;;;12.60;78.30;;;;;;5093187;28;20479;-68
2021/04/30 09:48:17;;;;;;;5.78;4.03;;;12.60;77.10;;;;;;5093388;28;20107;-69
2021/04/30 09:50:44;;;;;;;5.05;3.75;;;12.80;75.90;;;;;;5092180;28;20035;-68
2021/04/30 09:53:12;;;;;;;5.93;3.50;;;12.80;75.90;;;;;;5090465;28;20024;-68
2021/04/30 09:55:43;;;;;;;5.70;4.03;;;12.80;74.40;;;;;;5090648;28;20172;-67
2021/04/30 09:58:20;;;;;;;5.75;3.95;;;12.70;74.10;;;;;;5093025;28;20020;-69
2021/04/30 10:00:48;;;;;;;4.93;3.70;;;12.70;75.00;;;;;;5089256;28;20051;-68
2021/04/30 10:03:15;;;;;;;5.50;3.90;;;12.80;75.10;;;;;;5093549;28;20040;-68
2021/04/30 10:06:00;;;;;;;6.55;3.95;;;12.90;74.80;;;;;;5092331;28;20024;-68
2021/04/30 10:08:25;;;;;;;7.53;4.47;;;13.00;74.20;;;;;;5093200;28;20020;-68
2021/04/30 10:10:51;;;;;;;5.65;4.28;;;13.00;73.40;;;;;;5092488;28;20031;-68
2021/04/30 10:13:17;;;;;;;6.75;3.70;;;13.00;73.20;;;;;;5092807;28;20382;-68
2021/04/30 10:15:42;;;;;;;6.85;3.80;;;12.90;71.90;;;;;;5092552;28;20024;-68
2021/04/30 10:18:08;;;;;;;6.70;4.22;;;12.80;73.00;;;;;;5093307;28;20020;-68
2021/04/30 10:20:33;;;;;;;6.68;3.90;;;12.90;73.20;;;;;;5092373;28;20109;-68
2021/04/30 10:23:05;;;;;;;6.00;4.00;;;12.90;72.20;;;;;;5092660;28;20036;-68
2021/04/30 10:25:32;;;;;;;5.78;3.72;;;12.80;72.20;;;;;;5092136;28;20024;-68
2021/04/30 10:28:01;;;;;;;5.50;3.50;;;12.90;72.70;;;;;;5082928;28;20024;-68
2021/04/30 10:30:32;;;;;;;5.00;3.55;;;13.10;72.20;;;;;;5079807;28;20039;-68
2021/04/30 10:33:26;;;;;;;4.97;3.58;;;13.20;72.80;;;;;;5090646;28;20032;-68
2021/04/30 10:36:15;;;;;;;5.53;4.00;;;13.50;72.70;;;;;;5090453;28;20031;-68
2021/04/30 10:38:50;;;;;;;5.82;3.85;;;13.70;72.10;;;;;;5091172;28;20032;-69
2021/04/30 10:41:30;;;;;;;5.70;3.58;;;13.90;69.00;;;;;;5092793;28;20052;-69
2021/04/30 10:44:16;;;;;;;5.97;3.80;;;14.00;68.90;;;;;;5084290;28;20036;-69
2021/04/30 10:46:44;;;;;;;5.18;3.72;;;14.20;68.70;;;;;;5074955;28;20024;-71
2021/04/30 10:49:15;;;;;;;4.68;3.25;;;14.20;67.40;;;;;;5091902;28;20066;-68
2021/04/30 10:51:40;;;;;;;5.90;3.33;;;14.10;66.70;;;;;;5092069;28;20024;-68
2021/04/30 10:54:29;;;;;;;5.47;3.72;;;14.20;66.80;;;;;;5073882;28;20036;-69
2021/04/30 10:57:03;;;;;;;4.60;3.60;;;14.30;64.90;;;;;;5092425;28;20028;-69
2021/04/30 10:59:35;;;;;;;4.28;3.30;;;14.20;66.40;;;;;;5091583;28;20126;-69
2021/04/30 11:02:16;;;;;;;6.47;3.72;;;14.10;65.70;;;;;;5092197;28;20024;-69
2021/04/30 11:05:04;;;;;;;7.47;3.60;;;14.10;65.60;;;;;;5091637;28;20032;-69
2021/04/30 11:07:47;;;;;;;4.68;3.80;;;14.10;65.90;;;;;;5089594;28;20038;-69
2021/04/30 11:10:33;;;;;;;6.15;3.55;;;14.10;65.90;;;;;;5091737;28;20130;-68
2021/04/30 11:13:04;;;;;;;4.97;3.00;;;14.20;65.30;;;;;;5090611;28;20513;-68
2021/04/30 11:15:32;;;;;;;4.10;2.95;;;14.10;63.40;;;;;;5092255;28;20063;-68
2021/04/30 11:18:02;;;;;;;5.22;3.30;;;14.00;62.90;;;;;;5091250;28;20032;-68
2021/04/30 11:20:30;;;;;;;4.50;3.20;;;13.90;63.50;;;;;;5087229;28;20034;-68
2021/04/30 11:23:19;;;;;;;5.13;3.30;;;13.90;64.00;;;;;;5091226;28;20085;-68
2021/04/30 11:26:01;;;;;;;4.70;3.33;;;13.90;63.90;;;;;;5090811;28;20107;-68
2021/04/30 11:28:29;;;;;;;6.55;3.30;;;13.80;64.10;;;;;;5090208;28;20024;-68
2021/04/30 11:31:03;;;;;;;4.72;3.30;;;13.80;64.70;;;;;;5090261;28;20039;-68
2021/04/30 11:33:30;;;;;;;4.17;3.23;;;13.80;64.70;;;;;;5088561;28;20423;-69
2021/04/30 11:35:57;;;;;;;4.63;3.15;;;13.80;64.50;;;;;;5090893;28;20028;-68
2021/04/30 11:38:43;;;;;;;5.53;3.22;;;13.70;65.00;;;;;;5089999;28;20035;-68
2021/04/30 11:41:10;;;;;;;5.88;3.42;;;13.70;65.40;;;;;;5084427;28;20036;-68
2021/04/30 11:43:39;;;;;;;7.85;4.20;;;13.70;65.60;;;;;;5090808;28;20028;-70
2021/04/30 11:46:06;;;;;;;7.63;4.20;;;13.70;66.00;;;;;;5091160;28;20499;-69
2021/04/30 11:48:32;;;;;;;7.60;4.55;;;13.70;66.10;;;;;;5089303;28;20032;-70
2021/04/30 11:51:03;;;;;;;6.32;3.65;;;13.60;66.60;;;;;;5089791;28;20063;-69
2021/04/30 11:53:30;;;;;;;7.72;3.80;;;13.60;66.70;;;;;;5086838;28;20016;-70
2021/04/30 11:55:57;;;;;;;6.57;4.00;;;13.50;66.60;;;;;;5071934;28;20043;-70
2021/04/30 11:58:42;;;;;;;6.60;3.70;;;13.50;66.60;;;;;;5088003;28;20032;-70
2021/04/30 12:01:09;;;;;;;7.72;4.63;;;13.50;66.80;;;;;;5082006;28;20044;-70
2021/04/30 12:03:53;;;;;;;5.65;4.32;;;13.30;67.10;;;;;;5085115;28;20032;-69
2021/04/30 12:06:21;;;;;;;8.00;4.53;;;13.30;67.60;;;;;;5086324;28;20491;-68
2021/04/30 12:08:48;;;;;;;6.43;4.53;;;13.30;67.80;;;;;;5084211;28;20031;-69
2021/04/30 12:11:24;;;;;;;6.10;4.30;;;13.20;68.00;;;;;;5090024;28;20024;-69
2021/04/30 12:13:52;;;;;;;6.13;4.50;;;13.20;68.60;;;;;;5088126;28;20028;-69
2021/04/30 12:16:18;;;;;;;6.25;4.78;;;13.20;68.80;;;;;;5082048;28;20027;-68
2021/04/30 12:18:45;;;;;;;7.43;4.97;;;13.20;69.30;;;;;;5089682;28;20016;-68
2021/04/30 12:21:10;;;;;;;6.68;4.93;;;13.10;69.30;;;;;;5090541;28;20035;-69
2021/04/30 12:23:36;;;;;;;5.85;4.85;;;13.10;69.80;;;;;;5093755;28;20005;-67
2021/04/30 12:26:03;;;;;;;7.95;4.93;;;13.10;70.00;;;;;;5082856;28;20086;-71
2021/04/30 12:28:33;;;;;;;6.57;4.57;;;13.20;70.10;;;;;;5092761;28;20034;-66
2021/04/30 12:31:05;;;;;;;9.23;5.22;;;13.20;70.10;;;;;;5094141;28;20377;-67
2021/04/30 12:33:51;;;;;;;8.32;5.70;;;13.10;70.20;;;;;;5094077;28;20020;-68
2021/04/30 12:36:32;;;;;;;7.97;5.45;;;13.00;70.30;;;;;;5103534;28;20031;-67
2021/04/30 12:38:58;;;;;;;6.55;5.30;;;13.00;70.40;;;;;;5085851;28;20027;-67
2021/04/30 12:41:30;;;;;;;6.25;5.13;;;13.00;70.60;;;;;;5101442;28;20028;-66